Aegean Pride — ELXK8 — position and weather

sailwx.info

Track history (hours):
 
Tides and Currents Weather Stations Pressure Air Temp Water Temp Dewpoint Dewpoint Depression Visibility Wind Speed Wind Dir Waves Ship Positions

Aegean Pride

Last reported at 2017-Mar-17 09:21 UTC. Time now 2017-Oct-19 11:09 UTC.
Position N 31°47' E 121°00'.
Warning: this ship's position is months out of date.

Length 244 m; draft 8.2 m.

Type: Ship. MMSI: 636011186.

Date/timePositionNaut miles runAvg speedWind from/ knotsBaromVisibWave heightAir tempDewpointWater temp
2017-Mar-17 09:21N 31°47' E 121°00'1012.0
2017-Mar-17 08:33N 31°42' E 121°10'1313.4
2017-Mar-17 07:33N 31°32' E 121°21'1010.3
2017-Mar-17 06:33N 31°26' E 121°30'1110.9
2017-Mar-17 05:33N 31°20' E 121°41'10 9.9
2017-Mar-17 04:33N 31°16' E 121°52'1010.0
2017-Mar-17 03:33N 31°14' E 122°04'1110.6
2017-Mar-17 02:33N 31°09' E 122°14'8 7.8
2017-Mar-17 01:33N 31°06' E 122°23'9 8.6
2017-Mar-17 00:31N 31°07' E 122°33'5 5.0
2017-Mar-16 23:33N 31°07' E 122°39'  
2017-Mar-10 04:20N 35°58' E 120°25'  
Track history (hours):
 
Tides and Currents Weather Stations Pressure Air Temp Water Temp Dewpoint Dewpoint Depression Visibility Wind Speed Wind Dir Waves Ship Positions

Aegean Pride

Last reported at 2017-Mar-17 09:21 UTC. Time now 2017-Oct-19 11:09 UTC.
Position N 31°47' E 121°00'.
Warning: this ship's position is months out of date.

Length 244 m; draft 8.2 m.

Type: Ship. MMSI: 636011186.

Date/timePositionNaut miles runAvg speedWind from/ knotsBaromVisibWave heightAir tempDewpointWater temp
2017-Mar-17 09:21N 31°47' E 121°00'1012.0
2017-Mar-17 08:33N 31°42' E 121°10'1313.4
2017-Mar-17 07:33N 31°32' E 121°21'1010.3
2017-Mar-17 06:33N 31°26' E 121°30'1110.9
2017-Mar-17 05:33N 31°20' E 121°41'10 9.9
2017-Mar-17 04:33N 31°16' E 121°52'1010.0
2017-Mar-17 03:33N 31°14' E 122°04'1110.6
2017-Mar-17 02:33N 31°09' E 122°14'8 7.8
2017-Mar-17 01:33N 31°06' E 122°23'9 8.6
2017-Mar-17 00:31N 31°07' E 122°33'5 5.0
2017-Mar-16 23:33N 31°07' E 122°39'  
2017-Mar-10 04:20N 35°58' E 120°25'  

Dump ship's entire track history